Airfield :
LOGIN :

Register | Disclaimer

   EN    FR    IT 

 










Legend :    VFR   Marginal VFR   IFR   Intensive IFR   Very Intensive IFR
Visi :
Ceiling :
>= 8 km
>= 3000ft
5 to 8 km
1000 to 3000 ft
1500m to 5 km
500 to 1000 ft
800 to 1500m
200 to 500 ft
< 800m
< 200 ft
Symbols :   Thunderstorms  Fog  Heavy snow  Heavy precipitations  Wind > 20 kt
SIGMETs :     Misc.  Thunderstorms  Icing  Turbulence  Mountain Waves  Volcanic Ashes







- Airport Elevation : 1959 ft
- IATA code : HOQ


EDQM - Hof Plauen

CURRENT METAR :
  • 231850Z 03007KT 5000 BR FEW008 OVC012 06/03 Q1019

EXPIRED METARs :
  • 231820Z 02009KT 5000 BR SCT008 OVC013 06/04 Q1018
  • 231750Z 03008KT 6000 FEW009 OVC015 06/04 Q1018
  • 231720Z 02009KT 8000 SCT009 BKN017 07/04 Q1018

TAF TAF EDQM
Valid from the 23 at 18:00 until the 24 at 03:00 UTC


231700Z 2318/2403 03005KT 9999 BKN015
BECMG 2318/2319 BKN012
BECMG 2319/2321 3500 BR OVC008
TEMPO 2321/2403 2000 BR OVC004
No reported NOTAMs for that airfield.



MET'MAP, your aeronautical weather chart ! - Copyright ORBIFLY December 2007 - Disclaimer

ORBIFLY MET'MAP TEAM :

Programming & Development : Alexandra Zaïnal
Concept & Development : Baudouin d'Aumeries
Co-Development & Prog : Marc-Olivier Méhu
Technical & hardware support : Manuel Goepfert

Contact : metmap@orbifly.com




SOURCES & CREDITS :

   NOAA